Time;durP1;ratioP1;P1;durP2;ratioP2;P2;SDS_P1;SDS_P2;PMS_P1;PMS_P2;Temp;Humidity;BMP_temperature;BMP_pressure;BME280_temperature;BME280_humidity;BME280_pressure;Samples;Min_cycle;Max_cycle;Signal;HPM_P1;HPM_P2
2023/04/26 00:01:16;;;;;;;18.45;6.05;;;;;;;1.56;100.00;101934.16;5093236;28;20028;-72
2023/04/26 00:03:42;;;;;;;10.43;5.72;;;;;;;1.54;100.00;101940.97;5091847;28;20023;-72
2023/04/26 00:06:12;;;;;;;14.27;5.97;;;;;;;1.50;100.00;101943.38;5093096;28;20075;-72
2023/04/26 00:08:38;;;;;;;12.73;6.07;;;;;;;1.47;100.00;101940.72;5093154;28;20098;-72
2023/04/26 00:11:03;;;;;;;11.00;5.88;;;;;;;1.43;100.00;101933.75;5092514;28;20386;-72
2023/04/26 00:13:29;;;;;;;14.27;5.95;;;;;;;1.40;100.00;101937.94;5092767;28;20056;-72
2023/04/26 00:15:54;;;;;;;17.55;6.18;;;;;;;1.32;100.00;101935.97;5079839;28;20028;-72
2023/04/26 00:18:19;;;;;;;12.73;6.00;;;;;;;1.31;100.00;101937.69;5090899;28;20020;-72
2023/04/26 00:20:45;;;;;;;12.85;5.82;;;;;;;1.23;100.00;101935.69;5092380;28;20055;-72
2023/04/26 00:23:10;;;;;;;11.70;6.07;;;;;;;1.25;100.00;101945.19;5093030;28;20378;-72
2023/04/26 00:25:36;;;;;;;15.40;5.60;;;;;;;1.19;100.00;101933.84;5092338;28;20028;-72
2023/04/26 00:28:02;;;;;;;12.88;5.70;;;;;;;1.20;100.00;101943.28;5092577;28;20324;-72
2023/04/26 00:30:28;;;;;;;11.70;6.38;;;;;;;1.11;100.00;101934.47;5093087;28;20015;-72
2023/04/26 00:32:53;;;;;;;12.43;5.50;;;;;;;1.06;100.00;101936.00;5091674;28;20493;-72
2023/04/26 00:35:19;;;;;;;13.98;5.63;;;;;;;1.04;100.00;101942.78;5092697;28;20539;-72
2023/04/26 00:37:45;;;;;;;13.95;6.18;;;;;;;1.03;100.00;101938.47;5095026;28;20023;-72
2023/04/26 00:40:11;;;;;;;12.23;5.68;;;;;;;1.00;100.00;101948.63;5094395;28;20121;-72
2023/04/26 00:42:39;;;;;;;11.88;5.75;;;;;;;0.95;100.00;101939.94;5092511;28;20024;-72
2023/04/26 00:45:06;;;;;;;12.18;5.45;;;;;;;0.92;100.00;101943.25;5097035;28;20035;-72
2023/04/26 00:47:32;;;;;;;11.13;6.38;;;;;;;0.89;100.00;101942.28;5088567;28;20105;-71
2023/04/26 00:49:59;;;;;;;13.60;6.10;;;;;;;0.83;100.00;101945.50;5092308;28;20024;-72
2023/04/26 00:52:26;;;;;;;13.98;6.82;;;;;;;0.80;100.00;101942.84;5092489;28;20100;-72
2023/04/26 00:54:52;;;;;;;13.23;6.43;;;;;;;0.80;100.00;101942.84;5098754;28;20036;-72
2023/04/26 00:57:18;;;;;;;12.93;6.05;;;;;;;0.79;100.00;101942.78;5103724;28;20032;-72
2023/04/26 00:59:43;;;;;;;10.48;5.75;;;;;;;0.77;100.00;101940.16;5100805;28;20486;-72
2023/04/26 01:02:08;;;;;;;18.15;6.35;;;;;;;0.78;100.00;101939.34;5092189;28;20020;-72
2023/04/26 01:04:36;;;;;;;15.27;5.90;;;;;;;0.72;100.00;101940.81;5092614;28;20020;-72
2023/04/26 01:07:01;;;;;;;16.23;7.32;;;;;;;0.66;100.00;101939.81;5091637;28;20098;-72
2023/04/26 01:09:30;;;;;;;14.43;6.50;;;;;;;0.60;100.00;101942.16;5092448;28;20491;-72
2023/04/26 01:11:57;;;;;;;11.63;6.55;;;;;;;0.58;100.00;101943.78;5091386;28;20035;-72
2023/04/26 01:14:22;;;;;;;13.43;6.53;;;;;;;0.61;100.00;101943.88;5090756;28;20023;-72
2023/04/26 01:16:48;;;;;;;14.07;5.90;;;;;;;0.57;100.00;101942.03;5079852;28;20020;-72
2023/04/26 01:19:15;;;;;;;14.50;6.30;;;;;;;0.56;100.00;101939.44;5096519;28;20069;-72
2023/04/26 01:21:41;;;;;;;16.75;6.53;;;;;;;0.46;100.00;101931.41;5095417;28;20023;-72
2023/04/26 01:24:11;;;;;;;14.43;6.80;;;;;;;0.38;100.00;101920.00;5096284;28;20371;-72
2023/04/26 01:26:42;;;;;;;10.32;5.80;;;;;;;0.48;100.00;101946.84;5096473;28;20111;-72
2023/04/26 01:29:18;;;;;;;13.00;5.95;;;;;;;0.44;100.00;101945.00;5095465;28;20020;-72
2023/04/26 01:31:45;;;;;;;13.20;6.05;;;;;;;0.36;100.00;101946.41;5095968;28;20020;-72
2023/04/26 01:34:11;;;;;;;12.65;6.05;;;;;;;0.36;100.00;101946.41;5096066;28;20071;-72
2023/04/26 01:36:36;;;;;;;21.52;6.55;;;;;;;0.47;100.00;101955.38;5095288;28;20507;-71
2023/04/26 01:39:02;;;;;;;14.93;6.38;;;;;;;0.46;100.00;101953.63;5095708;28;20020;-72
2023/04/26 01:41:28;;;;;;;23.10;7.13;;;;;;;0.53;100.00;101954.72;5095833;28;20016;-72
2023/04/26 01:43:54;;;;;;;23.83;7.43;;;;;;;0.59;100.00;101950.69;5095287;28;20387;-72
2023/04/26 01:46:19;;;;;;;13.88;6.10;;;;;;;0.57;100.00;101948.88;5095918;28;20046;-72
2023/04/26 01:48:44;;;;;;;18.65;6.45;;;;;;;0.49;100.00;101938.34;5095549;28;20459;-72
2023/04/26 01:51:10;;;;;;;15.07;6.32;;;;;;;0.50;100.00;101949.47;5095366;28;20490;-72
2023/04/26 01:53:35;;;;;;;17.83;6.38;;;;;;;0.43;100.00;101946.69;5095821;28;20043;-72
2023/04/26 01:56:01;;;;;;;16.30;6.45;;;;;;;0.35;100.00;101939.53;5094485;28;20028;-72
2023/04/26 01:58:28;;;;;;;10.95;5.82;;;;;;;0.31;100.00;101950.50;5095554;28;20490;-72
2023/04/26 02:00:53;;;;;;;12.85;6.47;;;;;;;0.25;100.00;101942.59;5097445;28;20028;-72
2023/04/26 02:03:18;;;;;;;17.52;6.97;;;;;;;0.09;100.00;101931.75;5093141;28;20035;-72
2023/04/26 02:05:43;;;;;;;14.77;6.53;;;;;;;0.17;100.00;101950.03;5093219;28;20042;-72
2023/04/26 02:08:09;;;;;;;22.15;6.85;;;;;;;0.15;100.00;101951.63;5098897;28;20382;-72
2023/04/26 02:10:34;;;;;;;15.85;6.80;;;;;;;0.11;100.00;101950.66;5099938;27;20032;-72
2023/04/26 02:13:00;;;;;;;20.27;6.97;;;;;;;0.19;100.00;101954.34;5095822;28;20465;-72
2023/04/26 02:15:25;;;;;;;14.48;6.70;;;;;;;0.19;100.00;101945.78;5102707;28;20028;-72
2023/04/26 02:17:52;;;;;;;16.73;6.65;;;;;;;0.21;100.00;101957.00;5098919;28;20024;-72
2023/04/26 02:20:18;;;;;;;16.63;6.53;;;;;;;0.18;100.00;101952.63;5106662;28;20081;-72
2023/04/26 02:22:43;;;;;;;14.10;6.75;;;;;;;0.11;100.00;101950.66;5104250;28;21314;-72
2023/04/26 02:25:08;;;;;;;16.88;7.10;;;;;;;0.03;100.00;101952.03;5093578;28;20032;-72
2023/04/26 02:27:34;;;;;;;13.00;6.72;;;;;;;-0.02;100.00;101944.19;5088638;28;20123;-71
2023/04/26 02:29:59;;;;;;;16.55;6.45;;;;;;;-0.06;100.00;101942.34;5090345;28;20036;-72
2023/04/26 02:32:24;;;;;;;15.98;6.82;;;;;;;-0.11;100.00;101948.09;5087740;28;20074;-72
2023/04/26 02:34:50;;;;;;;17.33;6.75;;;;;;;-0.15;100.00;101949.69;5090379;28;20032;-72
2023/04/26 02:37:15;;;;;;;13.48;6.25;;;;;;;-0.21;100.00;101941.75;5097377;28;20047;-72
2023/04/26 02:39:40;;;;;;;18.38;7.15;;;;;;;-0.25;100.00;101945.03;5102636;28;20088;-72
2023/04/26 02:42:09;;;;;;;21.35;7.22;;;;;;;-0.22;100.00;101954.53;5098223;28;20036;-72
2023/04/26 02:44:35;;;;;;;17.00;6.82;;;;;;;-0.22;100.00;101945.16;5086251;28;20438;-72
2023/04/26 02:47:00;;;;;;;17.02;7.32;;;;;;;-0.17;100.00;101937.63;5098951;28;20051;-72
2023/04/26 02:49:26;;;;;;;15.32;6.93;;;;;;;-0.24;100.00;101928.81;5101282;28;20022;-72
2023/04/26 02:51:51;;;;;;;25.00;7.28;;;;;;;-0.17;100.00;101940.19;5094066;28;20105;-72
2023/04/26 02:54:16;;;;;;;19.15;6.90;;;;;;;-0.22;100.00;101945.16;5104601;28;20028;-72
2023/04/26 02:56:42;;;;;;;21.25;7.75;;;;;;;-0.31;100.00;101934.53;5094385;28;20020;-72
2023/04/26 02:59:07;;;;;;;16.27;6.68;;;;;;;-0.33;100.00;101929.38;5108888;28;20024;-72
2023/04/26 03:01:32;;;;;;;17.05;7.18;;;;;;;-0.33;100.00;101931.94;5094189;28;20020;-72
2023/04/26 03:03:58;;;;;;;16.83;6.22;;;;;;;-0.30;100.00;101926.88;5093352;28;20020;-72
2023/04/26 03:06:23;;;;;;;15.02;6.35;;;;;;;-0.31;100.00;101932.84;5094398;28;20032;-72
2023/04/26 03:08:49;;;;;;;15.80;6.82;;;;;;;-0.39;100.00;101928.22;5100739;28;20095;-72
2023/04/26 03:11:14;;;;;;;18.27;7.45;;;;;;;-0.40;100.00;101926.50;5105642;28;20032;-72
2023/04/26 03:13:39;;;;;;;24.63;7.38;;;;;;;-0.41;100.00;101917.06;5100129;28;20036;-72
2023/04/26 03:16:05;;;;;;;22.50;7.40;;;;;;;-0.35;100.00;101923.28;5098817;28;20036;-71
2023/04/26 03:18:30;;;;;;;16.65;7.05;;;;;;;-0.31;100.00;101929.41;5099088;28;20016;-72
2023/04/26 03:20:55;;;;;;;17.55;7.03;;;;;;;-0.38;100.00;101920.63;5109582;28;20476;-72
2023/04/26 03:23:24;;;;;;;23.27;7.30;;;;;;;-0.43;100.00;101921.25;5097247;28;20111;-71
2023/04/26 03:25:49;;;;;;;18.83;7.90;;;;;;;-0.45;100.00;101930.56;5093588;28;20472;-71
2023/04/26 03:28:15;;;;;;;17.30;8.48;;;;;;;-0.42;100.00;101918.75;5090833;28;20096;-72
2023/04/26 03:30:40;;;;;;;17.52;8.20;;;;;;;-0.39;100.00;101916.31;5093326;28;20047;-72
2023/04/26 03:33:05;;;;;;;18.58;7.32;;;;;;;-0.39;100.00;101925.66;5093845;28;20024;-71
2023/04/26 03:35:31;;;;;;;17.77;7.47;;;;;;;-0.47;100.00;101920.25;5078886;28;20107;-72
2023/04/26 03:37:56;;;;;;;16.95;7.20;;;;;;;-0.53;100.00;101922.56;5093354;28;20099;-71
2023/04/26 03:40:21;;;;;;;14.73;7.68;;;;;;;-0.54;100.00;101919.16;5092977;28;20016;-72
2023/04/26 03:42:46;;;;;;;17.70;7.60;;;;;;;-0.49;100.00;101919.34;5092677;28;20371;-72
2023/04/26 03:45:12;;;;;;;17.08;7.68;;;;;;;-0.49;100.00;101917.66;5093499;28;20028;-72
2023/04/26 03:47:37;;;;;;;14.32;7.85;;;;;;;-0.47;100.00;101922.81;5093332;28;20088;-72
2023/04/26 03:50:03;;;;;;;17.48;8.35;;;;;;;-0.57;100.00;101916.47;5093026;28;20017;-72
2023/04/26 03:52:28;;;;;;;18.15;8.07;;;;;;;-0.62;100.00;101917.09;5093656;28;20023;-72
2023/04/26 03:54:53;;;;;;;19.55;7.47;;;;;;;-0.67;100.00;101909.22;5092910;28;20012;-72
2023/04/26 03:57:18;;;;;;;19.48;8.82;;;;;;;-0.74;100.00;101908.13;5092780;28;20039;-72
2023/04/26 03:59:44;;;;;;;19.55;8.30;;;;;;;-0.79;100.00;101918.97;5093048;28;20042;-72
2023/04/26 04:02:09;;;;;;;17.48;7.68;;;;;;;-0.83;100.00;101912.88;5092882;28;20028;-71
2023/04/26 04:04:34;;;;;;;18.15;8.32;;;;;;;-0.77;100.00;101927.63;5092839;28;20130;-72
2023/04/26 04:07:00;;;;;;;24.08;8.20;;;;;;;-0.75;100.00;101926.88;5093031;28;20027;-72
2023/04/26 04:09:25;;;;;;;15.82;8.40;;;;;;;-0.72;100.00;101927.00;5092958;28;20020;-71
2023/04/26 04:11:51;;;;;;;19.35;9.00;;;;;;;-0.66;100.00;101920.34;5092321;28;20376;-72
2023/04/26 04:14:16;;;;;;;17.30;7.90;;;;;;;-0.69;100.00;101917.66;5092659;28;20506;-72
2023/04/26 04:16:43;;;;;;;15.45;8.05;;;;;;;-0.74;100.00;101918.38;5092186;28;20044;-72
2023/04/26 04:19:08;;;;;;;18.95;8.77;;;;;;;-0.75;100.00;101926.88;5092684;28;20056;-72
2023/04/26 04:21:33;;;;;;;22.08;9.43;;;;;;;-0.76;100.00;101925.09;5092956;28;20024;-72
2023/04/26 04:23:59;;;;;;;16.08;8.77;;;;;;;-0.89;100.00;101907.50;5091973;28;20419;-72
2023/04/26 04:26:25;;;;;;;19.17;9.20;;;;;;;-0.79;100.00;101926.66;5092645;28;20522;-71
2023/04/26 04:28:50;;;;;;;15.40;9.00;;;;;;;-0.84;100.00;101916.25;5092829;28;20012;-72
2023/04/26 04:31:16;;;;;;;21.40;9.52;;;;;;;-0.75;100.00;101931.13;5090064;28;20026;-72
2023/04/26 04:33:41;;;;;;;19.63;10.07;;;;;;;-0.74;100.00;101927.75;5088512;28;20029;-72
2023/04/26 04:36:07;;;;;;;17.55;9.45;;;;;;;-0.67;100.00;101924.59;5089163;28;20064;-72
2023/04/26 04:38:32;;;;;;;24.15;10.40;;;;;;;-0.83;100.00;101900.06;5089782;28;20073;-72
2023/04/26 04:40:58;;;;;;;24.20;9.93;;;;;;;-0.65;100.00;101924.69;5103709;28;20043;-72
2023/04/26 04:43:23;;;;;;;22.58;10.05;;;;;;;-0.59;100.00;101936.03;5090821;28;20509;-72
2023/04/26 04:45:49;;;;;;;19.92;9.73;;;;;;;-0.53;100.00;101935.38;5095366;28;20119;-72
2023/04/26 04:48:15;;;;;;;20.08;10.55;;;;;;;-0.52;100.00;101935.47;5097016;28;20032;-72
2023/04/26 04:50:41;;;;;;;22.90;11.23;;;;;;;-0.46;100.00;101932.25;5092780;28;20085;-72
2023/04/26 04:53:07;;;;;;;19.17;10.68;;;;;;;-0.43;100.00;101931.50;5090239;28;20024;-72
2023/04/26 04:55:33;;;;;;;24.63;11.13;;;;;;;-0.35;100.00;101955.75;5092298;28;20089;-72
2023/04/26 04:57:58;;;;;;;21.90;10.70;;;;;;;-0.30;100.00;101947.38;5092147;28;20024;-72
2023/04/26 05:00:24;;;;;;;19.13;11.13;;;;;;;-0.21;100.00;101946.88;5092254;28;20024;-72
2023/04/26 05:02:49;;;;;;;18.98;11.35;;;;;;;-0.16;100.00;101949.63;5092309;28;20384;-72
2023/04/26 05:05:14;;;;;;;22.98;11.70;;;;;;;-0.04;100.00;101944.94;5092522;28;20024;-72
2023/04/26 05:07:40;;;;;;;18.30;11.00;;;;;;;0.07;100.00;101953.06;5091737;28;20025;-72
2023/04/26 05:10:06;;;;;;;25.23;11.88;;;;;;;0.15;100.00;101946.50;5092155;28;20390;-72
2023/04/26 05:12:32;;;;;;;19.27;11.32;;;;;;;0.30;100.00;101946.22;5091959;28;20471;-72
2023/04/26 05:14:57;;;;;;;20.38;11.80;;;;;;;0.38;100.00;101939.66;5091646;28;20035;-72
2023/04/26 05:17:22;;;;;;;20.30;11.98;;;;;;;0.49;100.00;101940.91;5092455;28;20123;-72
2023/04/26 05:19:48;;;;;;;21.13;11.88;;;;;;;0.60;100.00;101946.41;5091781;28;20452;-72
2023/04/26 05:22:17;;;;;;;20.98;11.93;;;;;;;0.72;100.00;101940.81;5092376;28;20111;-72
2023/04/26 05:24:46;;;;;;;19.75;11.80;;;;;;;0.76;100.00;101938.44;5088878;28;20023;-72
2023/04/26 05:27:11;;;;;;;24.23;13.02;;;;;;;0.91;100.00;101948.31;5091705;28;20114;-72
2023/04/26 05:29:37;;;;;;;24.48;13.48;;;;;;;0.96;100.00;101941.66;5092291;28;20052;-72
2023/04/26 05:32:02;;;;;;;24.23;12.98;;;;;;;1.05;100.00;101947.09;5092181;28;20379;-72
2023/04/26 05:34:28;;;;;;;27.33;13.65;;;;;;;1.10;100.00;101942.97;5081168;28;20033;-72
2023/04/26 05:36:53;;;;;;;29.00;14.55;;;;;;;1.20;100.00;101943.28;5088397;28;20034;-72
2023/04/26 05:39:19;;;;;;;22.88;13.90;;;;;;;1.15;100.00;101928.59;5092181;28;20032;-72
2023/04/26 05:41:44;;;;;;;21.10;12.98;;;;;;;1.32;100.00;101948.81;5091222;28;20028;-72
2023/04/26 05:44:10;;;;;;;28.25;13.95;;;;;;;1.39;100.00;101953.31;5091934;28;20418;-72
2023/04/26 05:46:35;;;;;;;26.17;13.60;;;;;;;1.34;100.00;101931.75;5092055;28;20032;-72
2023/04/26 05:49:00;;;;;;;25.92;14.13;;;;;;;1.51;100.00;101948.59;5091202;28;20031;-72
2023/04/26 05:51:26;;;;;;;23.08;14.32;;;;;;;1.58;100.00;101950.50;5092333;28;20077;-72
2023/04/26 05:53:52;;;;;;;26.60;14.43;;;;;;;1.64;100.00;101949.84;5091629;28;20028;-72
2023/04/26 05:56:17;;;;;;;27.77;15.05;;;;;;;1.77;100.00;101945.94;5091652;28;20027;-72
2023/04/26 05:58:42;;;;;;;24.20;14.13;;;;;;;1.95;100.00;101940.47;5091862;28;20100;-72
2023/04/26 06:01:08;;;;;;;21.30;13.82;;;;;;;2.13;100.00;101942.72;5091699;28;20098;-72
2023/04/26 06:03:33;;;;;;;23.55;13.55;;;;;;;2.31;100.00;101943.22;5094613;28;20031;-72
2023/04/26 06:05:58;;;;;;;23.52;13.65;;;;;;;2.49;100.00;101945.44;5095413;28;20527;-72
2023/04/26 06:08:23;;;;;;;22.73;12.93;;;;;;;2.60;100.00;101938.88;5095289;28;20024;-72
2023/04/26 06:10:49;;;;;;;22.98;12.75;;;;;;;2.79;100.00;101950.53;5094327;28;20020;-72
2023/04/26 06:13:14;;;;;;;26.38;13.40;;;;;;;2.90;100.00;101949.09;5095138;28;20115;-72
2023/04/26 06:15:40;;;;;;;25.00;12.63;;;;;;;2.99;100.00;101948.47;5094938;28;20024;-72
2023/04/26 06:18:06;;;;;;;30.52;12.95;;;;;;;3.11;100.00;101963.38;5094783;28;20051;-72
2023/04/26 06:20:31;;;;;;;23.05;13.05;;;;;;;3.20;100.00;101955.84;5095307;28;20173;-72
2023/04/26 06:22:57;;;;;;;22.60;11.85;;;;;;;3.15;100.00;101944.56;5093560;28;20615;-72
2023/04/26 06:25:22;;;;;;;25.98;13.32;;;;;;;3.19;100.00;101951.53;5094550;28;20031;-72
2023/04/26 06:27:47;;;;;;;24.40;13.07;;;;;;;3.32;100.00;101965.59;5094939;28;20028;-72
2023/04/26 06:30:13;;;;;;;25.90;13.38;;;;;;;3.45;100.00;101967.63;5094497;28;20383;-72
2023/04/26 06:32:40;;;;;;;26.10;13.25;;;;;;;3.61;100.00;101971.44;5094680;28;20089;-72
2023/04/26 06:35:06;;;;;;;25.00;13.00;;;;;;;3.73;100.00;101951.97;5080418;28;20022;-72
2023/04/26 06:37:31;;;;;;;26.95;13.25;;;;;;;4.02;100.00;101958.56;5094076;28;20361;-71
2023/04/26 06:39:56;;;;;;;22.55;12.48;;;;;;;4.30;100.00;101971.22;5096329;28;20078;-71
2023/04/26 06:42:22;;;;;;;23.10;12.70;;;;;;;4.53;100.00;101965.66;5093756;28;20027;-71
2023/04/26 06:44:47;;;;;;;19.50;11.95;;;;;;;4.66;100.00;101959.88;5091932;28;20475;-71
2023/04/26 06:47:13;;;;;;;20.60;12.43;;;;;;;4.72;100.00;101964.28;5092955;28;20026;-71
2023/04/26 06:49:38;;;;;;;20.58;11.35;;;;;;;4.74;100.00;101963.47;5100707;28;20039;-71
2023/04/26 06:52:05;;;;;;;17.38;10.07;;;;;;;4.79;100.00;101967.00;5105319;28;20032;-71
2023/04/26 06:54:31;;;;;;;19.50;8.90;;;;;;;4.81;100.00;101969.63;5107214;28;20012;-71
2023/04/26 06:56:56;;;;;;;14.88;8.48;;;;;;;4.84;100.00;101969.66;5092221;28;20032;-71
2023/04/26 06:59:22;;;;;;;16.10;9.63;;;;;;;4.90;100.00;101965.50;5091946;28;20035;-71
2023/04/26 07:01:47;;;;;;;20.33;9.55;;;;;;;5.06;100.00;101971.78;5092642;28;20056;-71
2023/04/26 07:04:13;;;;;;;16.67;8.63;;;;;;;5.19;100.00;101966.81;5098649;28;20487;-71
2023/04/26 07:06:40;;;;;;;14.27;8.57;;;;;;;5.27;100.00;101968.69;5089664;28;20066;-72
2023/04/26 07:09:05;;;;;;;13.95;8.35;;;;;;;5.21;100.00;101959.97;5092211;28;20081;-71
2023/04/26 07:11:31;;;;;;;15.27;8.90;;;;;;;5.25;100.00;101972.97;5091878;28;20414;-71
2023/04/26 07:13:56;;;;;;;14.05;8.27;;;;;;;5.25;100.00;101978.13;5090195;28;20047;-71
2023/04/26 07:16:21;;;;;;;11.75;7.05;;;;;;;5.23;100.00;101982.44;5094686;28;20042;-71
2023/04/26 07:18:47;;;;;;;14.13;8.15;;;;;;;5.34;100.00;101978.28;5100469;28;20418;-71
2023/04/26 07:21:13;;;;;;;16.60;8.65;;;;;;;5.52;100.00;101979.41;5093407;28;20478;-71
2023/04/26 07:23:38;;;;;;;17.67;8.15;;;;;;;5.67;100.00;101976.22;5093575;28;20032;-71
2023/04/26 07:26:03;;;;;;;12.93;7.88;;;;;;;5.65;100.00;101963.22;5092002;28;20085;-71
2023/04/26 07:28:30;;;;;;;16.65;7.25;;;;;;;5.81;100.00;101977.25;5093384;28;20118;-70
2023/04/26 07:30:56;;;;;;;12.70;6.93;;;;;;;5.90;100.00;101977.41;5093843;28;20031;-71
2023/04/26 07:33:24;;;;;;;11.20;6.32;;;;;;;5.99;100.00;101972.41;5092361;28;20024;-71
2023/04/26 07:36:01;;;;;;;11.15;5.40;;;;;;;6.02;97.28;101974.16;5079414;28;20098;-71
2023/04/26 07:38:27;;;;;;;11.07;5.72;;;;;;;6.03;94.21;101969.00;5105564;28;20474;-71
2023/04/26 07:40:52;;;;;;;10.38;5.22;;;;;;;6.24;95.63;101963.19;5091831;28;20027;-72
2023/04/26 07:43:19;;;;;;;10.77;5.35;;;;;;;6.53;94.37;101950.59;5101735;28;20016;-72
2023/04/26 07:45:44;;;;;;;12.88;5.15;;;;;;;6.88;95.05;101955.28;5093963;28;20053;-72
2023/04/26 07:48:09;;;;;;;11.88;5.55;;;;;;;6.92;92.01;101948.38;5091090;28;20114;-72
2023/04/26 07:50:35;;;;;;;14.18;5.80;;;;;;;6.96;88.73;101944.97;5092778;28;20022;-72
2023/04/26 07:53:00;;;;;;;10.52;6.00;;;;;;;6.98;89.74;101959.69;5092958;28;20046;-72
2023/04/26 07:55:26;;;;;;;10.43;4.90;;;;;;;6.96;86.54;101953.59;5092882;28;20032;-72
2023/04/26 07:57:51;;;;;;;8.30;4.82;;;;;;;7.06;86.09;101961.47;5093104;28;20060;-72
2023/04/26 08:00:17;;;;;;;7.60;4.80;;;;;;;7.10;85.25;101953.75;5093302;28;20024;-72
2023/04/26 08:02:44;;;;;;;9.45;4.43;;;;;;;7.02;85.10;101960.59;5092479;28;20020;-72
2023/04/26 08:05:09;;;;;;;8.57;3.50;;;;;;;7.03;85.70;101967.53;5093406;28;20062;-72
2023/04/26 08:07:35;;;;;;;12.93;3.45;;;;;;;7.08;81.64;101964.97;5093159;28;20051;-72
2023/04/26 08:10:00;;;;;;;7.38;4.30;;;;;;;7.32;83.51;101972.06;5092617;28;20024;-72
2023/04/26 08:12:25;;;;;;;8.10;4.03;;;;;;;7.63;80.02;101983.56;5092744;28;20079;-72
2023/04/26 08:14:51;;;;;;;13.63;5.05;;;;;;;7.88;77.93;101979.38;5092481;28;20023;-72
2023/04/26 08:17:16;;;;;;;10.95;4.97;;;;;;;8.19;76.66;101978.69;5092474;28;20050;-72
2023/04/26 08:19:41;;;;;;;10.43;3.22;;;;;;;8.38;70.30;101976.19;5092528;28;20024;-72
2023/04/26 08:22:06;;;;;;;5.70;2.60;;;;;;;8.48;70.87;101972.78;5092766;28;20027;-72
2023/04/26 08:24:32;;;;;;;6.88;2.45;;;;;;;8.51;68.56;101977.13;5092403;28;20028;-72
2023/04/26 08:26:58;;;;;;;6.50;1.77;;;;;;;8.38;66.69;101964.06;5092667;28;20383;-72
2023/04/26 08:29:23;;;;;;;4.32;2.17;;;;;;;8.29;70.09;101965.75;5092576;28;20024;-72
2023/04/26 08:31:49;;;;;;;6.88;2.50;;;;;;;8.24;67.28;101962.25;5092018;28;20031;-72
2023/04/26 08:34:14;;;;;;;7.75;2.80;;;;;;;8.28;69.56;101959.69;5084276;28;20510;-72
2023/04/26 08:36:40;;;;;;;5.45;2.83;;;;;;;8.48;67.22;101972.78;5086731;28;20495;-72
2023/04/26 08:39:06;;;;;;;8.38;2.63;;;;;;;8.49;68.88;101943.31;5092383;28;20515;-72
2023/04/26 08:41:36;;;;;;;5.88;2.08;;;;;;;8.59;67.08;101965.84;5092679;28;20058;-72
2023/04/26 08:44:04;;;;;;;3.85;1.80;;;;;;;8.45;61.76;101964.97;5091639;28;20024;-72
2023/04/26 08:46:40;;;;;;;5.82;1.88;;;;;;;8.20;64.27;101958.75;5092644;28;20421;-72
2023/04/26 08:49:31;;;;;;;5.18;2.30;;;;;;;8.10;66.66;101963.03;5092194;28;20107;-72
2023/04/26 08:51:58;;;;;;;5.03;2.50;;;;;;;7.95;64.83;101965.59;5091461;28;20376;-72
2023/04/26 08:54:24;;;;;;;5.78;2.63;;;;;;;7.83;67.95;101962.91;5092874;28;20020;-72
2023/04/26 08:56:51;;;;;;;8.90;2.75;;;;;;;7.70;68.72;101964.56;5091977;28;20036;-72
2023/04/26 08:59:18;;;;;;;4.45;2.80;;;;;;;7.65;65.64;101961.97;5092030;28;20019;-72
2023/04/26 09:01:43;;;;;;;3.75;2.35;;;;;;;7.77;66.45;101970.66;5092440;28;20020;-72
2023/04/26 09:04:09;;;;;;;5.38;2.90;;;;;;;8.04;67.02;101965.59;5092050;28;20387;-72
2023/04/26 09:06:34;;;;;;;6.20;2.78;;;;;;;8.46;66.66;101958.03;5092035;28;20029;-72
2023/04/26 09:09:03;;;;;;;8.43;2.95;;;;;;;8.74;60.95;101958.97;5091918;28;20466;-72
2023/04/26 09:11:29;;;;;;;6.85;2.55;;;;;;;9.04;64.81;101942.53;5092376;28;20146;-72
2023/04/26 09:13:55;;;;;;;7.15;2.55;;;;;;;9.34;62.26;101952.06;5091243;28;20122;-72
2023/04/26 09:16:34;;;;;;;7.97;2.28;;;;;;;9.48;60.20;101947.75;5092373;28;20040;-72
2023/04/26 09:18:59;;;;;;;7.32;2.65;;;;;;;9.74;57.88;101952.88;5091532;28;20016;-72
2023/04/26 09:21:25;;;;;;;6.88;3.03;;;;;;;10.10;59.90;101938.00;5092310;28;20183;-72
2023/04/26 09:24:03;;;;;;;8.27;2.53;;;;;;;10.27;55.75;101938.84;5092213;28;20467;-72
2023/04/26 09:26:29;;;;;;;8.73;2.38;;;;;;;10.17;54.79;101933.63;5091744;28;20020;-72
2023/04/26 09:29:15;;;;;;;4.22;2.60;;;;;;;10.19;53.53;101942.31;5092147;28;20016;-72
2023/04/26 09:31:46;;;;;;;5.40;2.40;;;;;;;10.18;53.65;101937.97;5091917;28;20371;-72
2023/04/26 09:34:13;;;;;;;4.18;2.00;;;;;;;10.27;52.28;101948.41;5083603;28;20035;-72
2023/04/26 09:36:57;;;;;;;3.15;1.85;;;;;;;10.47;53.50;101946.56;5086495;28;20028;-72
2023/04/26 09:39:31;;;;;;;4.95;1.92;;;;;;;10.54;53.55;101955.22;5096260;28;20387;-72
2023/04/26 09:41:57;;;;;;;5.93;2.20;;;;;;;10.62;51.48;101955.16;5095209;28;20028;-72
2023/04/26 09:44:23;;;;;;;4.18;2.10;;;;;;;10.77;48.25;101947.25;5096303;28;20103;-72
2023/04/26 09:47:04;;;;;;;6.82;2.80;;;;;;;10.97;50.64;101947.97;5093596;28;20035;-72
2023/04/26 09:49:31;;;;;;;5.53;2.00;;;;;;;11.08;49.84;101942.66;5097893;28;20027;-71
2023/04/26 09:52:06;;;;;;;3.80;2.20;;;;;;;11.20;49.04;101944.31;5107777;28;20081;-72
2023/04/26 09:54:48;;;;;;;6.40;2.67;;;;;;;11.43;49.63;101941.50;5087189;28;20107;-72
2023/04/26 09:57:16;;;;;;;7.72;2.55;;;;;;;11.78;47.44;101940.28;5092877;28;20448;-72
2023/04/26 09:59:52;;;;;;;3.95;2.67;;;;;;;12.09;49.02;101940.81;5092513;28;20382;-72
2023/04/26 10:02:22;;;;;;;4.32;2.35;;;;;;;12.15;48.25;101938.13;5095068;28;20020;-72
2023/04/26 10:04:50;;;;;;;2.80;2.15;;;;;;;12.21;45.65;101939.81;5092602;28;20536;-73
2023/04/26 10:07:17;;;;;;;7.40;2.92;;;;;;;12.15;47.53;101933.75;5095382;28;20083;-72
2023/04/26 10:09:42;;;;;;;6.70;2.75;;;;;;;11.85;45.56;101927.16;5094521;28;20524;-72
2023/04/26 10:12:10;;;;;;;6.80;2.60;;;;;;;11.51;46.63;101944.03;5095178;28;20107;-73
2023/04/26 10:14:35;;;;;;;6.57;2.75;;;;;;;11.13;48.36;101940.03;5091703;28;20142;-73
2023/04/26 10:17:03;;;;;;;5.43;3.10;;;;;;;10.88;47.74;101942.81;5094525;28;20111;-73
2023/04/26 10:19:29;;;;;;;7.78;2.88;;;;;;;10.73;47.49;101945.53;5094524;28;20020;-73
2023/04/26 10:21:59;;;;;;;4.63;2.65;;;;;;;10.68;48.13;101942.09;5093983;28;20482;-72
2023/04/26 10:24:25;;;;;;;7.32;2.65;;;;;;;10.55;49.26;101936.94;5094535;28;20486;-72
2023/04/26 10:26:56;;;;;;;6.57;3.28;;;;;;;10.46;47.78;101942.22;5094641;28;20028;-73
2023/04/26 10:29:23;;;;;;;8.80;3.40;;;;;;;10.42;49.32;101939.63;5093788;28;20043;-72
2023/04/26 10:32:00;;;;;;;5.35;3.38;;;;;;;10.44;52.20;101936.16;5089956;28;20059;-72
2023/04/26 10:34:26;;;;;;;9.05;3.85;;;;;;;10.47;51.64;101930.06;5084078;28;20028;-73
2023/04/26 10:37:13;;;;;;;8.25;3.55;;;;;;;10.64;50.64;101943.00;5090009;28;20043;-72
2023/04/26 10:39:40;;;;;;;12.95;4.30;;;;;;;10.62;51.77;101923.88;5094743;28;20032;-73
2023/04/26 10:42:25;;;;;;;7.00;3.90;;;;;;;10.78;52.65;101938.53;5093699;28;20030;-72
2023/04/26 10:44:54;;;;;;;9.38;4.10;;;;;;;10.85;51.52;101927.19;5097959;28;20490;-73
2023/04/26 10:47:40;;;;;;;8.77;4.28;;;;;;;10.71;52.87;101931.63;5099477;27;20024;-71
2023/04/26 10:50:07;;;;;;;8.38;3.70;;;;;;;10.52;51.70;101926.53;5097840;28;20100;-72
2023/04/26 10:52:35;;;;;;;8.70;4.75;;;;;;;10.42;52.77;101924.84;5091726;28;20486;-72
2023/04/26 10:55:01;;;;;;;6.35;3.88;;;;;;;10.36;50.17;101917.06;5092917;28;20024;-72
2023/04/26 10:57:51;;;;;;;7.28;3.88;;;;;;;10.39;52.88;101924.00;5093843;28;20157;-72
2023/04/26 11:00:19;;;;;;;6.95;3.85;;;;;;;10.39;52.00;101929.22;5093395;28;20024;-72
2023/04/26 11:02:51;;;;;;;6.05;3.92;;;;;;;10.44;50.74;101925.72;5104002;28;20020;-72
2023/04/26 11:05:37;;;;;;;7.35;4.05;;;;;;;10.48;53.00;101927.41;5085917;28;20024;-73
2023/04/26 11:08:08;;;;;;;9.02;4.28;;;;;;;10.43;51.22;101924.00;5094722;28;20039;-73
2023/04/26 11:10:36;;;;;;;12.48;4.55;;;;;;;10.69;50.98;101925.56;5108973;28;20051;-72
2023/04/26 11:13:03;;;;;;;10.35;4.80;;;;;;;11.02;52.22;101921.84;5090980;28;20032;-73
2023/04/26 11:15:30;;;;;;;9.40;4.30;;;;;;;11.18;47.16;101915.63;5091851;28;20024;-73